Time;durP1;ratioP1;P1;durP2;ratioP2;P2;SDS_P1;SDS_P2;PMS_P1;PMS_P2;Temp;Humidity;BMP_temperature;BMP_pressure;BME280_temperature;BME280_humidity;BME280_pressure;Samples;Min_cycle;Max_cycle;Signal;HPM_P1;HPM_P2
2022/03/25 00:01:58;;;;;;;0.00;0.00;;;;;;;;;;6182255;23;20379;-61
2022/03/25 00:04:24;;;;;;;1.77;1.73;;;;;;;;;;6181796;23;20001;-61
2022/03/25 00:06:49;;;;;;;0.00;0.00;;;;;;;;;;6181575;23;20003;-62
2022/03/25 00:09:15;;;;;;;0.00;0.00;;;;;;;;;;6181549;23;19994;-63
2022/03/25 00:11:40;;;;;;;2.60;2.50;;;;;;;;;;6181041;23;20001;-63
2022/03/25 00:14:05;;;;;;;0.00;0.00;;;;;;;;;;6181306;23;20005;-62
2022/03/25 00:16:32;;;;;;;0.13;0.13;;;;;;;;;;6181441;23;20007;-64
2022/03/25 00:18:57;;;;;;;3.03;2.33;;;;;;;;;;6181685;23;20008;-63
2022/03/25 00:21:22;;;;;;;1.65;1.55;;;;;;;;;;6181867;23;20009;-60
2022/03/25 00:23:47;;;;;;;0.00;0.00;;;;;;;;;;6182053;23;20001;-59
2022/03/25 00:26:13;;;;;;;0.00;0.00;;;;;;;;;;6182611;23;19993;-59
2022/03/25 00:28:38;;;;;;;0.68;0.68;;;;;;;;;;6182024;23;20001;-59
2022/03/25 00:31:06;;;;;;;0.00;0.00;;;;;;;;;;6182821;23;20013;-61
2022/03/25 00:33:32;;;;;;;0.63;0.55;;;;;;;;;;6181925;23;20016;-62
2022/03/25 00:35:58;;;;;;;0.10;0.10;;;;;;;;;;6182111;23;20408;-60
2022/03/25 00:38:23;;;;;;;0.00;0.00;;;;;;;;;;6181885;23;20007;-60
2022/03/25 00:40:49;;;;;;;0.00;0.00;;;;;;;;;;6183303;23;20005;-59
2022/03/25 00:43:14;;;;;;;0.65;0.57;;;;;;;;;;6183693;23;19997;-60
2022/03/25 00:45:39;;;;;;;0.55;0.55;;;;;;;;;;6183709;23;20001;-59
2022/03/25 00:48:05;;;;;;;2.40;2.40;;;;;;;;;;6184112;23;20001;-58
2022/03/25 00:50:30;;;;;;;0.30;0.30;;;;;;;;;;6183045;23;20076;-60
2022/03/25 00:52:55;;;;;;;3.78;3.45;;;;;;;;;;6182018;23;20058;-60
2022/03/25 00:55:21;;;;;;;1.48;1.38;;;;;;;;;;6181363;23;20032;-61
2022/03/25 00:57:47;;;;;;;1.48;1.48;;;;;;;;;;6180843;23;20378;-60
2022/03/25 01:00:12;;;;;;;0.00;0.00;;;;;;;;;;6180420;23;20005;-60
2022/03/25 01:02:38;;;;;;;0.73;0.73;;;;;;;;;;6180831;23;20427;-60
2022/03/25 01:05:04;;;;;;;0.63;0.63;;;;;;;;;;6181916;23;20041;-60
2022/03/25 01:07:29;;;;;;;2.13;2.00;;;;;;;;;;6181691;23;20004;-60
2022/03/25 01:09:54;;;;;;;0.10;0.10;;;;;;;;;;6180862;23;19997;-59
2022/03/25 01:12:21;;;;;;;4.18;3.75;;;;;;;;;;6180828;23;20000;-60
2022/03/25 01:14:46;;;;;;;2.58;2.47;;;;;;;;;;6180930;23;20077;-59
2022/03/25 01:17:12;;;;;;;0.38;0.38;;;;;;;;;;6182198;23;20032;-59
2022/03/25 01:19:38;;;;;;;0.00;0.00;;;;;;;;;;6181173;23;19997;-60
2022/03/25 01:22:03;;;;;;;0.00;0.00;;;;;;;;;;6181204;23;20108;-59
2022/03/25 01:24:29;;;;;;;0.00;0.00;;;;;;;;;;6181471;23;20024;-59
2022/03/25 01:26:54;;;;;;;0.00;0.00;;;;;;;;;;6180918;23;19993;-60
2022/03/25 01:29:19;;;;;;;0.22;0.22;;;;;;;;;;6155973;23;20001;-60
2022/03/25 01:31:45;;;;;;;2.90;1.88;;;;;;;;;;6183223;23;20009;-60
2022/03/25 01:34:10;;;;;;;0.52;0.52;;;;;;;;;;6183781;23;20013;-59
2022/03/25 01:36:35;;;;;;;0.00;0.00;;;;;;;;;;6184553;23;20005;-58
2022/03/25 01:39:01;;;;;;;0.00;0.00;;;;;;;;;;6184542;23;20029;-59
2022/03/25 01:41:26;;;;;;;3.35;1.50;;;;;;;;;;6182043;23;20001;-60
2022/03/25 01:43:53;;;;;;;2.58;2.40;;;;;;;;;;6182631;23;20001;-59
2022/03/25 01:46:18;;;;;;;0.75;0.75;;;;;;;;;;6183107;23;20051;-60
2022/03/25 01:48:43;;;;;;;0.00;0.00;;;;;;;;;;6182401;23;20001;-59
2022/03/25 01:51:09;;;;;;;1.52;1.52;;;;;;;;;;6181659;23;20027;-60
2022/03/25 01:53:34;;;;;;;0.25;0.25;;;;;;;;;;6181300;23;20005;-60
2022/03/25 01:56:00;;;;;;;0.00;0.00;;;;;;;;;;6181395;23;20427;-66
2022/03/25 01:58:26;;;;;;;0.00;0.00;;;;;;;;;;6181042;23;20047;-67
2022/03/25 02:00:52;;;;;;;0.00;0.00;;;;;;;;;;6180273;23;20084;-66
2022/03/25 02:03:17;;;;;;;0.38;0.38;;;;;;;;;;6180670;23;20032;-68
2022/03/25 02:05:43;;;;;;;2.83;2.72;;;;;;;;;;6180641;23;20000;-66
2022/03/25 02:08:09;;;;;;;0.00;0.00;;;;;;;;;;6180625;23;20205;-67
2022/03/25 02:10:35;;;;;;;0.52;0.52;;;;;;;;;;6180077;23;19997;-67
2022/03/25 02:13:00;;;;;;;0.60;0.60;;;;;;;;;;6180835;23;20836;-67
2022/03/25 02:15:35;;;;;;;0.73;0.73;;;;;;;;;;6181048;23;20005;-66
2022/03/25 02:18:01;;;;;;;0.15;0.15;;;;;;;;;;6180718;23;20011;-65
2022/03/25 02:20:27;;;;;;;2.08;2.03;;;;;;;;;;6154441;23;20009;-66
2022/03/25 02:22:52;;;;;;;0.00;0.00;;;;;;;;;;6182339;23;20118;-67
2022/03/25 02:25:18;;;;;;;0.00;0.00;;;;;;;;;;6183029;23;20073;-68
2022/03/25 02:27:46;;;;;;;0.55;0.55;;;;;;;;;;6182354;23;20415;-69
2022/03/25 02:30:12;;;;;;;0.00;0.00;;;;;;;;;;6183187;23;20032;-68
2022/03/25 02:32:39;;;;;;;0.00;0.00;;;;;;;;;;6183011;23;20033;-68
2022/03/25 02:35:05;;;;;;;0.55;0.55;;;;;;;;;;6182532;23;20021;-68
2022/03/25 02:37:30;;;;;;;0.00;0.00;;;;;;;;;;6182657;23;20035;-69
2022/03/25 02:39:55;;;;;;;0.32;0.32;;;;;;;;;;6156018;23;20055;-69
2022/03/25 02:42:21;;;;;;;0.00;0.00;;;;;;;;;;6182282;23;20026;-69
2022/03/25 02:44:46;;;;;;;2.03;1.92;;;;;;;;;;6181917;23;20001;-68
2022/03/25 02:47:11;;;;;;;0.30;0.30;;;;;;;;;;6182700;23;20009;-66
2022/03/25 02:49:37;;;;;;;0.00;0.00;;;;;;;;;;6182025;23;19997;-65
2022/03/25 02:52:02;;;;;;;0.00;0.00;;;;;;;;;;6182587;23;20008;-65
2022/03/25 02:54:27;;;;;;;0.00;0.00;;;;;;;;;;6182956;23;20009;-65
2022/03/25 02:56:52;;;;;;;0.00;0.00;;;;;;;;;;6181688;23;20000;-69
2022/03/25 02:59:18;;;;;;;1.38;1.38;;;;;;;;;;6182746;23;20001;-69
2022/03/25 03:01:43;;;;;;;0.00;0.00;;;;;;;;;;6181966;23;20079;-67
2022/03/25 03:04:09;;;;;;;0.00;0.00;;;;;;;;;;6182413;23;20001;-66
2022/03/25 03:06:34;;;;;;;0.00;0.00;;;;;;;;;;6182129;23;19997;-64
2022/03/25 03:08:59;;;;;;;0.00;0.00;;;;;;;;;;6182257;23;20049;-65
2022/03/25 03:11:25;;;;;;;0.00;0.00;;;;;;;;;;6182520;23;20430;-66
2022/03/25 03:13:50;;;;;;;0.00;0.00;;;;;;;;;;6181795;23;20009;-68
2022/03/25 03:16:15;;;;;;;0.00;0.00;;;;;;;;;;6182876;23;19997;-69
2022/03/25 03:18:40;;;;;;;0.03;0.03;;;;;;;;;;6182152;23;20000;-68
2022/03/25 03:21:06;;;;;;;0.00;0.00;;;;;;;;;;6155520;23;20063;-68
2022/03/25 03:23:31;;;;;;;0.05;0.05;;;;;;;;;;6182460;23;20024;-68
2022/03/25 03:25:57;;;;;;;0.00;0.00;;;;;;;;;;6181622;23;19993;-68
2022/03/25 03:28:22;;;;;;;0.00;0.00;;;;;;;;;;6182445;23;20005;-66
2022/03/25 03:30:47;;;;;;;0.00;0.00;;;;;;;;;;6181914;23;20360;-66
2022/03/25 03:33:12;;;;;;;0.70;0.70;;;;;;;;;;6182274;23;20063;-66
2022/03/25 03:35:37;;;;;;;0.00;0.00;;;;;;;;;;6180790;23;20017;-64
2022/03/25 03:38:03;;;;;;;0.00;0.00;;;;;;;;;;6182132;23;20083;-68
2022/03/25 03:40:28;;;;;;;0.00;0.00;;;;;;;;;;6182531;23;20691;-68
2022/03/25 03:42:53;;;;;;;1.17;1.17;;;;;;;;;;6181964;23;20004;-69
2022/03/25 03:45:19;;;;;;;0.00;0.00;;;;;;;;;;6182100;23;19993;-64
2022/03/25 03:47:44;;;;;;;0.00;0.00;;;;;;;;;;6181221;23;20001;-64
2022/03/25 03:50:11;;;;;;;0.00;0.00;;;;;;;;;;6182469;23;20004;-64
2022/03/25 03:52:37;;;;;;;0.00;0.00;;;;;;;;;;6155593;23;20125;-67
2022/03/25 03:55:03;;;;;;;0.00;0.00;;;;;;;;;;6181758;23;20037;-67
2022/03/25 03:57:28;;;;;;;0.00;0.00;;;;;;;;;;6181838;23;20008;-67
2022/03/25 03:59:54;;;;;;;0.00;0.00;;;;;;;;;;6181355;23;20383;-67
2022/03/25 04:08:21;;;;;;;0.20;0.20;;;;;;;;;;6140819;23;20036;-68
2022/03/25 04:10:46;;;;;;;0.00;0.00;;;;;;;;;;6149794;23;20009;-67
2022/03/25 04:13:12;;;;;;;0.00;0.00;;;;;;;;;;6152426;23;20036;-67
2022/03/25 04:15:38;;;;;;;0.90;0.90;;;;;;;;;;6151200;23;20076;-67
2022/03/25 04:18:03;;;;;;;0.10;0.10;;;;;;;;;;6151559;23;20006;-67
2022/03/25 04:20:28;;;;;;;0.68;0.60;;;;;;;;;;6151766;23;20001;-67
2022/03/25 04:22:53;;;;;;;0.20;0.20;;;;;;;;;;6150807;23;20008;-66
2022/03/25 04:25:19;;;;;;;0.00;0.00;;;;;;;;;;6151548;23;20435;-68
2022/03/25 04:27:45;;;;;;;12.40;2.25;;;;;;;;;;6151339;23;20068;-68
2022/03/25 04:30:10;;;;;;;1.40;1.35;;;;;;;;;;6150926;23;20004;-67
2022/03/25 04:32:35;;;;;;;3.33;2.40;;;;;;;;;;6151319;23;20005;-67
2022/03/25 04:35:00;;;;;;;2.08;1.98;;;;;;;;;;6151125;23;20368;-67
2022/03/25 04:37:26;;;;;;;0.90;0.90;;;;;;;;;;6150126;23;20001;-67
2022/03/25 04:39:51;;;;;;;0.30;0.30;;;;;;;;;;6151738;23;20002;-67
2022/03/25 04:42:16;;;;;;;0.00;0.00;;;;;;;;;;6150757;23;20005;-67
2022/03/25 04:44:41;;;;;;;0.00;0.00;;;;;;;;;;6151628;23;20816;-68
2022/03/25 04:47:07;;;;;;;0.17;0.17;;;;;;;;;;6150691;23;20056;-68
2022/03/25 04:49:32;;;;;;;0.00;0.00;;;;;;;;;;6152173;23;20001;-67
2022/03/25 04:51:58;;;;;;;0.00;0.00;;;;;;;;;;6149834;23;20013;-68
2022/03/25 04:54:23;;;;;;;0.10;0.10;;;;;;;;;;6151127;23;20342;-65
2022/03/25 04:56:48;;;;;;;4.22;4.13;;;;;;;;;;6151128;23;20355;-66
2022/03/25 04:59:13;;;;;;;0.00;0.00;;;;;;;;;;6152034;23;20021;-65
2022/03/25 05:01:39;;;;;;;2.10;2.08;;;;;;;;;;6151746;23;20479;-65
2022/03/25 05:04:04;;;;;;;0.55;0.55;;;;;;;;;;6151100;23;20028;-64
2022/03/25 05:06:29;;;;;;;0.00;0.00;;;;;;;;;;6150855;23;20359;-67
2022/03/25 05:08:54;;;;;;;0.00;0.00;;;;;;;;;;6150650;23;20111;-66
2022/03/25 05:11:20;;;;;;;0.00;0.00;;;;;;;;;;6151793;23;20609;-65
2022/03/25 05:13:45;;;;;;;0.20;0.20;;;;;;;;;;6151519;23;20424;-63
2022/03/25 05:16:10;;;;;;;0.00;0.00;;;;;;;;;;6151048;23;20005;-64
2022/03/25 05:18:35;;;;;;;0.00;0.00;;;;;;;;;;6151351;23;19997;-64
2022/03/25 05:21:01;;;;;;;0.00;0.00;;;;;;;;;;6150577;23;20005;-64
2022/03/25 05:23:26;;;;;;;0.00;0.00;;;;;;;;;;6151528;23;20006;-64
2022/03/25 05:25:51;;;;;;;0.43;0.43;;;;;;;;;;6151601;23;19995;-67
2022/03/25 05:28:17;;;;;;;1.08;1.00;;;;;;;;;;6150691;23;20442;-66
2022/03/25 05:30:42;;;;;;;7.13;6.70;;;;;;;;;;6150945;23;19993;-67
2022/03/25 05:33:07;;;;;;;5.75;2.33;;;;;;;;;;6150769;23;20074;-66
2022/03/25 05:35:32;;;;;;;0.00;0.00;;;;;;;;;;6150777;23;20001;-67
2022/03/25 05:37:58;;;;;;;1.10;1.10;;;;;;;;;;6150471;23;20005;-67
2022/03/25 05:40:24;;;;;;;0.28;0.17;;;;;;;;;;6151428;23;20008;-63
2022/03/25 05:42:50;;;;;;;4.05;1.75;;;;;;;;;;6150808;23;20076;-64
2022/03/25 05:45:16;;;;;;;0.00;0.00;;;;;;;;;;6150940;23;20107;-64
2022/03/25 05:47:42;;;;;;;2.65;2.45;;;;;;;;;;6151081;23;20005;-64
2022/03/25 05:50:08;;;;;;;0.00;0.00;;;;;;;;;;6150479;23;20001;-64
2022/03/25 05:52:33;;;;;;;0.00;0.00;;;;;;;;;;6150725;23;20005;-63
2022/03/25 05:54:58;;;;;;;0.00;0.00;;;;;;;;;;6150566;23;20400;-64
2022/03/25 05:57:23;;;;;;;0.00;0.00;;;;;;;;;;6150644;23;20001;-64
2022/03/25 05:59:49;;;;;;;1.05;1.05;;;;;;;;;;6151330;23;19996;-64
2022/03/25 06:02:14;;;;;;;3.55;3.42;;;;;;;;;;6150370;23;20097;-63
2022/03/25 06:04:40;;;;;;;9.13;4.57;;;;;;;;;;6150404;23;20074;-64
2022/03/25 06:07:05;;;;;;;3.55;3.35;;;;;;;;;;6124391;23;20001;-63
2022/03/25 06:09:31;;;;;;;5.55;5.15;;;;;;;;;;6151039;23;20033;-64
2022/03/25 06:11:57;;;;;;;1.30;1.08;;;;;;;;;;6151113;23;20009;-64
2022/03/25 06:14:22;;;;;;;1.00;1.00;;;;;;;;;;6151548;23;20068;-64
2022/03/25 06:16:47;;;;;;;1.17;1.00;;;;;;;;;;6151399;23;20006;-64
2022/03/25 06:19:17;;;;;;;1.45;1.45;;;;;;;;;;6151058;23;20009;-64
2022/03/25 06:21:42;;;;;;;;;;;;;;;;;;6152060;23;20327;-63
2022/03/25 06:24:07;;;;;;;0.00;0.00;;;;;;;;;;6151019;23;20200;-68
2022/03/25 06:26:32;;;;;;;0.38;0.38;;;;;;;;;;6151589;23;20001;-68
2022/03/25 06:28:58;;;;;;;2.78;2.65;;;;;;;;;;6150775;23;20001;-68
2022/03/25 06:31:23;;;;;;;0.60;0.38;;;;;;;;;;6150962;23;20407;-69
2022/03/25 06:33:48;;;;;;;0.38;0.38;;;;;;;;;;6150705;23;20069;-69
2022/03/25 06:36:13;;;;;;;0.00;0.00;;;;;;;;;;6150489;23;20028;-68
2022/03/25 06:38:42;;;;;;;1.38;0.77;;;;;;;;;;6151020;23;20099;-69
2022/03/25 06:41:07;;;;;;;0.68;0.55;;;;;;;;;;6150470;23;20002;-69
2022/03/25 06:43:33;;;;;;;0.00;0.00;;;;;;;;;;6150812;23;20005;-67
2022/03/25 06:45:58;;;;;;;0.00;0.00;;;;;;;;;;6150375;23;20001;-66
2022/03/25 06:48:24;;;;;;;0.00;0.00;;;;;;;;;;6150989;23;20076;-67
2022/03/25 06:50:49;;;;;;;0.03;0.03;;;;;;;;;;6150754;23;19997;-67
2022/03/25 06:53:14;;;;;;;0.15;0.15;;;;;;;;;;6150184;23;20064;-68
2022/03/25 06:55:40;;;;;;;0.00;0.00;;;;;;;;;;6150989;23;20773;-66
2022/03/25 06:58:06;;;;;;;1.20;1.10;;;;;;;;;;6150343;23;20367;-66
2022/03/25 07:00:31;;;;;;;0.00;0.00;;;;;;;;;;6150670;23;20080;-67
2022/03/25 07:02:57;;;;;;;0.93;0.73;;;;;;;;;;6150226;23;20141;-67
2022/03/25 07:05:24;;;;;;;0.15;0.15;;;;;;;;;;6151734;23;20416;-66
2022/03/25 07:07:49;;;;;;;0.25;0.25;;;;;;;;;;6151506;23;20001;-67
2022/03/25 07:10:15;;;;;;;0.93;0.93;;;;;;;;;;6125766;23;20467;-68
2022/03/25 07:12:41;;;;;;;0.52;0.52;;;;;;;;;;6103680;23;20076;-67
2022/03/25 07:15:07;;;;;;;1.60;1.60;;;;;;;;;;6152382;23;20599;-67
2022/03/25 07:17:32;;;;;;;0.90;0.90;;;;;;;;;;6152974;23;20004;-65
2022/03/25 07:19:57;;;;;;;0.47;0.47;;;;;;;;;;6152781;23;20060;-66
2022/03/25 07:22:23;;;;;;;6.13;2.38;;;;;;;;;;6152158;23;20433;-61
2022/03/25 07:24:48;;;;;;;0.22;0.22;;;;;;;;;;6152520;23;20016;-63
2022/03/25 07:27:13;;;;;;;3.08;1.60;;;;;;;;;;6152059;23;20006;-61
2022/03/25 07:29:38;;;;;;;2.38;2.28;;;;;;;;;;6151702;23;20001;-60
2022/03/25 07:32:04;;;;;;;3.28;2.97;;;;;;;;;;6150828;23;20084;-60
2022/03/25 07:34:31;;;;;;;3.30;2.90;;;;;;;;;;6152329;23;19994;-60
2022/03/25 07:36:56;;;;;;;3.05;2.45;;;;;;;;;;6152160;23;20002;-60
2022/03/25 07:39:22;;;;;;;11.43;11.00;;;;;;;;;;6151658;23;20454;-60
2022/03/25 07:41:47;;;;;;;3.67;3.55;;;;;;;;;;6151658;23;20375;-60
2022/03/25 07:44:12;;;;;;;2.10;1.10;;;;;;;;;;6151471;23;20001;-59
2022/03/25 07:46:37;;;;;;;3.28;2.38;;;;;;;;;;6152539;23;20002;-59
2022/03/25 07:49:03;;;;;;;0.28;0.28;;;;;;;;;;6151683;23;20032;-60
2022/03/25 07:51:29;;;;;;;0.13;0.13;;;;;;;;;;6151861;23;20080;-59
2022/03/25 07:53:54;;;;;;;4.53;4.13;;;;;;;;;;6152509;23;20303;-61
2022/03/25 07:56:19;;;;;;;0.75;0.55;;;;;;;;;;6151314;23;19997;-59
2022/03/25 07:58:44;;;;;;;0.00;0.00;;;;;;;;;;6151391;23;19997;-59
2022/03/25 08:01:10;;;;;;;0.00;0.00;;;;;;;;;;6151777;23;20093;-59
2022/03/25 08:03:35;;;;;;;3.65;2.65;;;;;;;;;;6151407;23;20021;-60
2022/03/25 08:06:00;;;;;;;0.17;0.17;;;;;;;;;;6151545;23;20316;-59
2022/03/25 08:08:26;;;;;;;0.30;0.30;;;;;;;;;;6151382;23;20273;-60
2022/03/25 08:10:55;;;;;;;0.55;0.55;;;;;;;;;;6151813;23;20013;-60
2022/03/25 08:13:20;;;;;;;;;;;;;;;;;;6150950;23;20089;-60
2022/03/25 08:15:45;;;;;;;0.52;0.52;;;;;;;;;;6150163;23;19907;-59
2022/03/25 08:18:11;;;;;;;4.80;4.50;;;;;;;;;;6150991;23;20001;-59
2022/03/25 08:20:39;;;;;;;12.68;11.77;;;;;;;;;;6149400;23;20001;-59
2022/03/25 08:23:05;;;;;;;6.15;5.75;;;;;;;;;;6150089;23;20424;-59
2022/03/25 08:28:15;;;;;;;1.35;1.35;;;;;;;;;;6149032;23;20031;-60
2022/03/25 08:30:41;;;;;;;0.13;0.13;;;;;;;;;;6151572;23;20029;-58
2022/03/25 08:33:06;;;;;;;0.00;0.00;;;;;;;;;;6151563;23;20478;-60
2022/03/25 08:35:32;;;;;;;5.38;4.88;;;;;;;;;;6152041;23;20077;-59
2022/03/25 08:37:57;;;;;;;0.55;0.55;;;;;;;;;;6151837;23;20319;-58
2022/03/25 08:40:23;;;;;;;0.05;0.05;;;;;;;;;;6151759;23;20315;-59
2022/03/25 08:42:49;;;;;;;0.00;0.00;;;;;;;;;;6151894;23;20011;-59
2022/03/25 08:45:15;;;;;;;0.60;0.60;;;;;;;;;;6151099;23;19998;-60
2022/03/25 08:47:40;;;;;;;15.23;13.80;;;;;;;;;;6152004;23;20063;-59
2022/03/25 08:50:07;;;;;;;2.28;2.05;;;;;;;;;;6151378;23;20057;-60
2022/03/25 08:52:32;;;;;;;0.00;0.00;;;;;;;;;;6151183;23;20408;-59
2022/03/25 08:54:58;;;;;;;3.38;3.10;;;;;;;;;;6151807;23;20012;-59
2022/03/25 08:57:23;;;;;;;0.00;0.00;;;;;;;;;;6150654;23;20025;-59
2022/03/25 08:59:49;;;;;;;3.53;1.77;;;;;;;;;;6151456;23;20077;-57
2022/03/25 09:02:14;;;;;;;0.38;0.38;;;;;;;;;;6150937;23;20097;-58
2022/03/25 09:04:40;;;;;;;5.47;3.95;;;;;;;;;;6150181;23;20009;-59
2022/03/25 09:07:05;;;;;;;0.10;0.10;;;;;;;;;;6145663;23;20081;-60
2022/03/25 09:09:31;;;;;;;1.25;1.23;;;;;;;;;;6148416;23;20521;-60
2022/03/25 09:11:56;;;;;;;5.45;5.22;;;;;;;;;;6149025;23;20008;-59
2022/03/25 09:14:21;;;;;;;3.30;3.00;;;;;;;;;;6149967;23;20006;-59
2022/03/25 09:16:46;;;;;;;11.67;5.63;;;;;;;;;;6151100;23;20028;-59
2022/03/25 09:19:12;;;;;;;6.70;2.47;;;;;;;;;;6150512;23;20236;-60
2022/03/25 09:21:38;;;;;;;40.55;4.45;;;;;;;;;;6149520;23;20056;-59
2022/03/25 09:24:03;;;;;;;17.73;16.48;;;;;;;;;;6150492;23;20005;-59
2022/03/25 09:26:29;;;;;;;0.00;0.00;;;;;;;;;;6150681;23;20013;-59
2022/03/25 09:28:54;;;;;;;2.28;2.17;;;;;;;;;;6150911;23;19997;-60
2022/03/25 09:31:19;;;;;;;7.95;7.05;;;;;;;;;;6150780;23;20394;-59
2022/03/25 09:33:44;;;;;;;1.55;1.55;;;;;;;;;;6151435;23;20001;-60
2022/03/25 09:36:09;;;;;;;4.82;4.57;;;;;;;;;;6149574;23;20021;-59
2022/03/25 09:38:35;;;;;;;0.73;0.73;;;;;;;;;;6151162;23;20068;-60
2022/03/25 09:41:06;;;;;;;6.45;5.75;;;;;;;;;;6151358;23;20060;-59
2022/03/25 09:43:31;;;;;;;4.65;4.32;;;;;;;;;;6150916;23;20013;-62
2022/03/25 09:45:56;;;;;;;3.30;2.65;;;;;;;;;;6151224;23;20001;-59
2022/03/25 09:48:22;;;;;;;2.33;2.22;;;;;;;;;;6124586;23;20008;-59
2022/03/25 09:50:47;;;;;;;2.20;1.75;;;;;;;;;;6150797;23;19998;-59
2022/03/25 09:53:12;;;;;;;3.78;3.50;;;;;;;;;;6150068;23;19997;-59
2022/03/25 09:55:40;;;;;;;1.85;1.75;;;;;;;;;;6149874;23;20012;-57
2022/03/25 09:58:05;;;;;;;2.30;2.20;;;;;;;;;;6123494;23;20711;-59
2022/03/25 10:00:31;;;;;;;2.92;2.78;;;;;;;;;;6149837;23;20013;-59
2022/03/25 10:02:56;;;;;;;1.52;1.52;;;;;;;;;;6150344;23;19997;-59
2022/03/25 10:05:22;;;;;;;3.85;3.60;;;;;;;;;;6149130;23;20068;-59
2022/03/25 10:07:48;;;;;;;4.80;4.53;;;;;;;;;;6149597;23;20003;-59
2022/03/25 10:10:17;;;;;;;14.40;9.68;;;;;;;;;;6149397;23;20024;-60
2022/03/25 10:12:47;;;;;;;3.03;2.63;;;;;;;;;;6149931;23;20077;-59
2022/03/25 10:15:16;;;;;;;1.13;1.05;;;;;;;;;;6149295;23;20001;-59
2022/03/25 10:17:45;;;;;;;0.10;0.10;;;;;;;;;;6149957;23;20076;-60
2022/03/25 10:20:10;;;;;;;5.43;5.03;;;;;;;;;;6149752;23;20427;-59
2022/03/25 10:22:35;;;;;;;1.02;1.02;;;;;;;;;;6149561;23;20001;-61
2022/03/25 10:25:01;;;;;;;0.77;0.77;;;;;;;;;;6149802;23;20057;-59
2022/03/25 10:27:29;;;;;;;1.23;1.17;;;;;;;;;;6149768;23;19998;-59
2022/03/25 10:29:55;;;;;;;4.03;3.83;;;;;;;;;;6150144;23;20301;-59
2022/03/25 10:32:24;;;;;;;4.63;4.40;;;;;;;;;;6149359;23;20072;-60
2022/03/25 10:35:00;;;;;;;4.75;4.28;;;;;;;;;;6150083;23;20012;-61
2022/03/25 10:37:27;;;;;;;16.77;10.30;;;;;;;;;;6148690;23;20001;-60
2022/03/25 10:39:52;;;;;;;5.20;4.90;;;;;;;;;;6148758;23;20013;-60
2022/03/25 10:42:18;;;;;;;5.20;4.07;;;;;;;;;;6149694;23;20001;-61
2022/03/25 10:44:43;;;;;;;4.07;3.78;;;;;;;;;;6151865;23;20412;-61
2022/03/25 10:47:14;;;;;;;2.75;2.53;;;;;;;;;;6151549;23;20009;-61
2022/03/25 10:49:43;;;;;;;11.15;5.50;;;;;;;;;;6151925;23;19998;-60
2022/03/25 10:52:19;;;;;;;1.02;1.02;;;;;;;;;;6151380;23;20439;-60
2022/03/25 10:54:44;;;;;;;9.63;7.57;;;;;;;;;;6151770;23;20072;-59
2022/03/25 10:57:09;;;;;;;2.10;2.03;;;;;;;;;;6151522;23;20051;-61
2022/03/25 10:59:35;;;;;;;0.65;0.65;;;;;;;;;;6151302;23;20033;-60
2022/03/25 11:02:01;;;;;;;2.75;2.28;;;;;;;;;;6151575;23;19998;-61
2022/03/25 11:04:27;;;;;;;3.40;3.10;;;;;;;;;;6151085;23;19994;-61
2022/03/25 11:06:52;;;;;;;6.65;6.03;;;;;;;;;;6151423;23;20009;-61
2022/03/25 11:09:18;;;;;;;0.85;0.85;;;;;;;;;;6124223;23;20021;-60
2022/03/25 11:11:45;;;;;;;8.60;7.78;;;;;;;;;;6151647;23;20308;-61
2022/03/25 11:14:10;;;;;;;14.02;7.68;;;;;;;;;;6150994;23;20008;-61
2022/03/25 11:16:40;;;;;;;11.13;8.68;;;;;;;;;;6152119;23;20063;-60
2022/03/25 11:19:07;;;;;;;8.25;7.60;;;;;;;;;;6152276;23;20009;-61
2022/03/25 11:21:33;;;;;;;12.45;9.90;;;;;;;;;;6151814;23;20077;-62
2022/03/25 11:23:59;;;;;;;10.90;9.02;;;;;;;;;;6146083;23;20029;-61
2022/03/25 11:26:26;;;;;;;5.35;4.90;;;;;;;;;;6151697;23;19997;-60
2022/03/25 11:28:53;;;;;;;0.93;0.93;;;;;;;;;;6152361;23;20022;-62
2022/03/25 11:31:18;;;;;;;7.75;6.97;;;;;;;;;;6152164;23;20072;-60
2022/03/25 11:34:02;;;;;;;4.00;3.67;;;;;;;;;;6152776;23;20036;-60
2022/03/25 11:36:27;;;;;;;17.70;13.77;;;;;;;;;;6152123;23;19998;-59
2022/03/25 11:39:12;;;;;;;4.53;4.32;;;;;;;;;;6151841;23;20004;-59
2022/03/25 11:41:37;;;;;;;10.70;8.05;;;;;;;;;;6152204;23;20067;-60
2022/03/25 11:44:14;;;;;;;6.38;5.45;;;;;;;;;;6152335;23;20642;-60
2022/03/25 11:46:58;;;;;;;3.67;3.15;;;;;;;;;;6152523;23;20000;-60
2022/03/25 11:49:23;;;;;;;4.07;3.65;;;;;;;;;;6152008;23;20412;-60
2022/03/25 11:51:48;;;;;;;12.07;7.90;;;;;;;;;;6152336;23;20081;-58
2022/03/25 11:54:33;;;;;;;5.65;5.10;;;;;;;;;;6151591;23;20002;-58
2022/03/25 11:56:59;;;;;;;0.25;0.25;;;;;;;;;;6151530;23;20056;-59
2022/03/25 11:59:25;;;;;;;7.68;6.88;;;;;;;;;;6151033;23;20001;-59
2022/03/25 12:01:50;;;;;;;17.50;12.35;;;;;;;;;;6152696;23;20558;-61
2022/03/25 12:04:33;;;;;;;13.10;7.40;;;;;;;;;;6151840;23;20005;-59
2022/03/25 12:07:00;;;;;;;8.25;7.07;;;;;;;;;;6151917;23;20006;-61
2022/03/25 12:09:36;;;;;;;3.85;3.67;;;;;;;;;;6151620;23;20428;-59
2022/03/25 12:12:02;;;;;;;8.32;7.50;;;;;;;;;;6151954;23;20009;-60
2022/03/25 12:14:31;;;;;;;10.13;9.23;;;;;;;;;;6151951;23;20427;-59
2022/03/25 12:16:56;;;;;;;;;;;;;;;;;;6152750;23;20056;-60
2022/03/25 12:19:31;;;;;;;12.75;11.43;;;;;;;;;;6151902;23;20278;-59
2022/03/25 12:21:59;;;;;;;15.23;12.98;;;;;;;;;;6152039;23;20011;-60
2022/03/25 12:24:25;;;;;;;4.32;4.03;;;;;;;;;;6151645;23;20421;-59
2022/03/25 12:27:00;;;;;;;9.13;8.50;;;;;;;;;;6151666;23;20027;-58
2022/03/25 12:29:29;;;;;;;9.35;6.47;;;;;;;;;;6151362;23;20005;-59
2022/03/25 12:31:54;;;;;;;7.22;6.55;;;;;;;;;;6151764;23;20009;-60
2022/03/25 12:34:28;;;;;;;6.25;5.88;;;;;;;;;;6151052;23;20359;-57
2022/03/25 12:36:56;;;;;;;24.75;15.23;;;;;;;;;;6151729;23;20309;-55
2022/03/25 12:39:21;;;;;;;3.33;2.38;;;;;;;;;;6151430;23;20590;-58
2022/03/25 12:41:48;;;;;;;9.77;5.75;;;;;;;;;;6152110;23;20009;-59
2022/03/25 12:44:13;;;;;;;3.30;2.55;;;;;;;;;;6150889;23;20005;-58
2022/03/25 12:46:39;;;;;;;5.95;5.53;;;;;;;;;;6151612;23;19993;-59
2022/03/25 12:49:05;;;;;;;12.93;7.15;;;;;;;;;;6152034;23;20009;-60
2022/03/25 12:51:31;;;;;;;11.18;10.02;;;;;;;;;;6151288;23;20009;-58
2022/03/25 12:53:56;;;;;;;10.98;6.15;;;;;;;;;;6151764;23;20001;-59
2022/03/25 12:56:22;;;;;;;7.05;6.40;;;;;;;;;;6151077;23;20167;-57
2022/03/25 12:58:49;;;;;;;2.70;2.50;;;;;;;;;;6151785;23;20015;-59
2022/03/25 13:01:19;;;;;;;2.85;2.45;;;;;;;;;;6151126;23;19997;-59
2022/03/25 13:03:47;;;;;;;17.70;12.38;;;;;;;;;;6151666;23;20009;-59
2022/03/25 13:06:12;;;;;;;6.60;4.50;;;;;;;;;;6150677;23;20439;-58
2022/03/25 13:08:39;;;;;;;8.13;7.40;;;;;;;;;;6151019;23;20020;-60
2022/03/25 13:11:04;;;;;;;14.18;10.02;;;;;;;;;;6151662;23;20005;-59
2022/03/25 13:13:31;;;;;;;11.95;8.27;;;;;;;;;;6149842;23;20093;-60
2022/03/25 13:16:06;;;;;;;6.53;4.75;;;;;;;;;;6151403;23;20076;-58
2022/03/25 13:18:33;;;;;;;5.65;5.07;;;;;;;;;;6151475;23;20005;-59
2022/03/25 13:20:59;;;;;;;7.10;5.53;;;;;;;;;;6151660;23;20009;-58
2022/03/25 13:23:25;;;;;;;2.25;2.05;;;;;;;;;;6150888;23;19997;-58
2022/03/25 13:25:51;;;;;;;18.42;7.78;;;;;;;;;;6150750;23;19994;-60
2022/03/25 13:28:23;;;;;;;7.85;7.13;;;;;;;;;;6151008;23;20002;-59
2022/03/25 13:30:49;;;;;;;1.90;1.90;;;;;;;;;;6151776;23;20017;-60
2022/03/25 13:33:16;;;;;;;2.13;2.00;;;;;;;;;;6150137;23;20151;-58
2022/03/25 13:35:41;;;;;;;2.70;2.50;;;;;;;;;;6151027;23;20439;-59
2022/03/25 13:38:09;;;;;;;4.53;4.32;;;;;;;;;;6151360;23;20068;-59
2022/03/25 13:40:45;;;;;;;5.97;5.47;;;;;;;;;;6151406;23;20014;-58
2022/03/25 13:43:12;;;;;;;7.13;5.00;;;;;;;;;;6151343;23;20077;-60
2022/03/25 13:45:38;;;;;;;8.95;6.57;;;;;;;;;;6151440;23;19998;-58
2022/03/25 13:48:10;;;;;;;12.95;9.98;;;;;;;;;;6150259;23;20332;-59
2022/03/25 13:50:45;;;;;;;7.25;6.53;;;;;;;;;;6150922;23;20011;-59
2022/03/25 13:53:10;;;;;;;7.95;6.05;;;;;;;;;;6149364;23;19998;-59
2022/03/25 13:55:37;;;;;;;1.45;1.45;;;;;;;;;;6149711;23;20048;-57
2022/03/25 13:58:03;;;;;;;3.15;1.83;;;;;;;;;;6150744;23;20005;-57
2022/03/25 14:00:39;;;;;;;4.28;3.97;;;;;;;;;;6150880;23;20001;-59
2022/03/25 14:03:05;;;;;;;4.90;4.32;;;;;;;;;;6150703;23;20001;-59
2022/03/25 14:05:36;;;;;;;3.35;3.17;;;;;;;;;;6150863;23;20001;-59
2022/03/25 14:08:03;;;;;;;3.78;3.58;;;;;;;;;;6150904;23;19994;-60
2022/03/25 14:10:28;;;;;;;7.47;3.50;;;;;;;;;;6150676;23;20013;-59
2022/03/25 14:13:14;;;;;;;3.70;3.50;;;;;;;;;;6150770;23;20016;-57
2022/03/25 14:15:39;;;;;;;7.53;6.90;;;;;;;;;;6150452;23;20025;-59
2022/03/25 14:18:15;;;;;;;0.75;0.47;;;;;;;;;;6150556;23;20002;-58
2022/03/25 14:20:41;;;;;;;8.00;7.75;;;;;;;;;;6151624;23;20017;-58
2022/03/25 14:23:11;;;;;;;0.80;0.80;;;;;;;;;;6151086;23;20431;-58
2022/03/25 14:25:37;;;;;;;1.70;1.70;;;;;;;;;;6150731;23;20072;-59
2022/03/25 14:28:06;;;;;;;3.35;3.25;;;;;;;;;;6151340;23;20343;-60
2022/03/25 14:30:31;;;;;;;7.40;5.20;;;;;;;;;;6150307;23;20028;-60
2022/03/25 14:32:56;;;;;;;6.30;5.85;;;;;;;;;;6150833;23;20001;-60
2022/03/25 14:35:22;;;;;;;2.55;2.42;;;;;;;;;;6150528;23;20005;-59
2022/03/25 14:37:48;;;;;;;7.55;5.80;;;;;;;;;;6151003;23;20005;-60
2022/03/25 14:40:13;;;;;;;9.23;4.38;;;;;;;;;;6151540;23;20084;-59
2022/03/25 14:42:38;;;;;;;4.55;4.20;;;;;;;;;;6150452;23;20020;-60
2022/03/25 14:45:15;;;;;;;15.93;7.68;;;;;;;;;;6150905;23;20002;-60
2022/03/25 14:47:41;;;;;;;11.73;9.20;;;;;;;;;;6150776;23;19994;-59